Time;durP1;ratioP1;P1;durP2;ratioP2;P2;SDS_P1;SDS_P2;PMS_P1;PMS_P2;Temp;Humidity;BMP_temperature;BMP_pressure;BME280_temperature;BME280_humidity;BME280_pressure;Samples;Min_cycle;Max_cycle;Signal;HPM_P1;HPM_P2
2021/03/13 00:01:23;;;;;;;6.18;2.83;;;4.70;96.10;;;;;;5014382;28;20025;-66
2021/03/13 00:03:49;;;;;;;4.90;2.78;;;4.70;95.90;;;;;;5021998;28;20538;-67
2021/03/13 00:06:15;;;;;;;4.57;2.42;;;4.70;96.00;;;;;;5021705;28;20057;-67
2021/03/13 00:08:40;;;;;;;4.38;2.40;;;4.70;96.00;;;;;;5023939;28;20052;-67
2021/03/13 00:11:08;;;;;;;6.25;2.63;;;4.70;96.20;;;;;;5017227;28;20033;-67
2021/03/13 00:13:35;;;;;;;4.50;2.67;;;4.70;96.10;;;;;;5022241;28;20053;-66
2021/03/13 00:16:00;;;;;;;8.35;3.25;;;4.70;95.90;;;;;;5020409;28;20646;-67
2021/03/13 00:18:27;;;;;;;7.18;3.15;;;4.60;96.30;;;;;;5022275;28;20029;-67
2021/03/13 00:20:53;;;;;;;5.07;3.60;;;4.60;96.40;;;;;;5035064;28;20037;-67
2021/03/13 00:23:18;;;;;;;6.43;3.50;;;4.60;96.00;;;;;;5022120;28;20069;-67
2021/03/13 00:25:45;;;;;;;6.60;3.92;;;4.60;96.30;;;;;;5018182;28;20037;-67
2021/03/13 00:28:10;;;;;;;7.38;3.70;;;4.60;96.20;;;;;;5021483;28;20030;-67
2021/03/13 00:30:43;;;;;;;4.35;3.58;;;4.60;96.40;;;;;;5019589;28;20203;-67
2021/03/13 00:33:17;;;;;;;8.73;3.28;;;4.60;96.40;;;;;;5022580;28;20061;-67
2021/03/13 00:35:45;;;;;;;8.02;3.17;;;4.60;96.10;;;;;;5020726;28;20018;-67
2021/03/13 00:38:11;;;;;;;7.65;4.15;;;4.60;96.00;;;;;;5019227;28;20033;-67
2021/03/13 00:40:41;;;;;;;8.77;3.88;;;4.50;96.20;;;;;;5019683;28;20048;-67
2021/03/13 00:43:07;;;;;;;9.75;4.85;;;4.50;96.20;;;;;;5017943;28;20483;-67
2021/03/13 00:45:34;;;;;;;8.43;4.13;;;4.50;96.30;;;;;;5019440;28;20455;-67
2021/03/13 00:48:01;;;;;;;5.07;3.63;;;4.50;96.30;;;;;;5018381;28;20033;-67
2021/03/13 00:50:29;;;;;;;9.48;4.18;;;4.50;96.20;;;;;;5020236;28;20038;-67
2021/03/13 00:52:56;;;;;;;7.93;4.05;;;4.50;96.30;;;;;;5020805;28;20045;-67
2021/03/13 00:55:22;;;;;;;8.10;3.83;;;4.40;96.50;;;;;;5023272;28;20017;-67
2021/03/13 00:57:47;;;;;;;7.00;4.25;;;4.40;96.50;;;;;;5017719;28;20070;-67
2021/03/13 01:00:16;;;;;;;6.82;3.47;;;4.40;96.60;;;;;;5020494;28;20373;-67
2021/03/13 01:02:43;;;;;;;8.02;4.22;;;4.40;96.30;;;;;;5019470;28;20094;-67
2021/03/13 01:05:10;;;;;;;7.22;3.72;;;4.40;96.30;;;;;;5023360;28;20411;-67
2021/03/13 01:07:37;;;;;;;7.60;4.15;;;4.40;96.10;;;;;;5019048;28;20083;-67
2021/03/13 01:10:20;;;;;;;8.80;4.22;;;4.30;96.20;;;;;;5020514;28;20487;-67
2021/03/13 01:12:47;;;;;;;7.72;3.15;;;4.30;96.40;;;;;;5016819;28;20038;-67
2021/03/13 01:15:17;;;;;;;6.25;3.42;;;4.30;96.50;;;;;;5021380;28;20053;-67
2021/03/13 01:17:42;;;;;;;5.97;3.03;;;4.30;96.60;;;;;;5023431;28;20022;-67
2021/03/13 01:20:11;;;;;;;5.38;3.30;;;4.30;95.90;;;;;;5023107;28;20030;-67
2021/03/13 01:22:38;;;;;;;4.68;3.17;;;4.40;95.90;;;;;;5022152;28;20034;-66
2021/03/13 01:25:05;;;;;;;4.13;2.92;;;4.30;95.90;;;;;;5019260;28;20041;-67
2021/03/13 01:27:31;;;;;;;6.18;2.80;;;4.30;96.00;;;;;;5023701;28;20127;-67
2021/03/13 01:29:57;;;;;;;5.22;2.28;;;4.20;95.90;;;;;;5020047;28;20265;-67
2021/03/13 01:32:23;;;;;;;6.22;2.75;;;4.20;96.10;;;;;;5024073;28;20167;-67
2021/03/13 01:34:49;;;;;;;7.43;2.38;;;4.20;96.10;;;;;;5021374;28;20075;-67
2021/03/13 01:37:18;;;;;;;4.60;2.70;;;4.20;95.70;;;;;;5027564;28;20042;-67
2021/03/13 01:39:43;;;;;;;8.13;2.45;;;4.20;95.80;;;;;;5024781;28;20026;-67
2021/03/13 01:42:09;;;;;;;4.30;2.42;;;4.20;95.70;;;;;;5025266;28;20116;-67
2021/03/13 01:44:35;;;;;;;6.60;2.40;;;4.20;95.60;;;;;;5025273;28;20076;-67
2021/03/13 01:47:01;;;;;;;6.30;2.35;;;4.20;95.60;;;;;;5025465;28;20044;-67
2021/03/13 01:49:30;;;;;;;7.65;2.35;;;4.20;95.70;;;;;;5025800;28;20083;-67
2021/03/13 01:51:57;;;;;;;9.73;2.72;;;4.10;95.30;;;;;;5026911;28;20041;-67
2021/03/13 01:54:23;;;;;;;4.60;1.90;;;4.10;95.60;;;;;;5022743;28;20025;-67
2021/03/13 01:56:51;;;;;;;4.22;2.08;;;4.10;95.60;;;;;;5023678;28;20030;-67
2021/03/13 01:59:18;;;;;;;5.78;1.98;;;4.10;95.30;;;;;;5022422;28;20426;-67
2021/03/13 02:01:45;;;;;;;4.43;1.80;;;4.10;95.60;;;;;;5023798;28;20037;-67
2021/03/13 02:04:12;;;;;;;4.63;1.95;;;4.10;95.40;;;;;;5024766;28;20037;-67
2021/03/13 02:06:38;;;;;;;8.10;2.28;;;4.10;95.30;;;;;;5028471;28;20061;-67
2021/03/13 02:09:09;;;;;;;3.47;1.60;;;4.10;95.20;;;;;;5026094;28;20431;-67
2021/03/13 02:12:19;;;;;;;4.35;1.52;;;4.10;95.30;;;;;;5026746;28;20030;-67
2021/03/13 02:15:09;;;;;;;4.68;1.50;;;4.10;95.30;;;;;;5027161;28;20030;-67
2021/03/13 02:17:43;;;;;;;2.88;1.35;;;4.10;95.10;;;;;;5026004;28;20083;-67
2021/03/13 02:20:35;;;;;;;3.92;1.85;;;4.10;95.20;;;;;;5027742;28;20121;-67
2021/03/13 02:23:02;;;;;;;5.78;2.22;;;4.10;95.10;;;;;;5029136;28;20058;-67
2021/03/13 02:25:57;;;;;;;5.25;1.90;;;4.10;94.80;;;;;;5030615;28;20029;-67
2021/03/13 02:28:56;;;;;;;6.80;2.60;;;4.10;95.00;;;;;;5030145;28;20105;-66
2021/03/13 02:31:24;;;;;;;5.97;2.60;;;4.10;95.10;;;;;;5030744;28;20033;-67
2021/03/13 02:33:58;;;;;;;10.48;2.45;;;4.10;95.20;;;;;;5031143;28;20029;-66
2021/03/13 02:36:25;;;;;;;5.35;2.83;;;4.10;95.00;;;;;;5028497;28;20037;-67
2021/03/13 02:38:59;;;;;;;11.40;3.45;;;4.10;94.90;;;;;;5029753;28;20104;-67
2021/03/13 02:41:30;;;;;;;10.02;3.60;;;4.10;95.10;;;;;;5029927;28;20031;-66
2021/03/13 02:44:01;;;;;;;6.82;3.75;;;4.10;95.10;;;;;;5028760;28;20119;-67
2021/03/13 02:46:30;;;;;;;6.93;3.67;;;4.20;95.00;;;;;;5026808;28;20570;-67
2021/03/13 02:48:57;;;;;;;7.10;3.35;;;4.20;95.30;;;;;;5028749;28;20029;-67
2021/03/13 02:51:26;;;;;;;8.82;4.05;;;4.20;95.20;;;;;;5029076;28;20025;-67
2021/03/13 02:53:55;;;;;;;10.50;4.28;;;4.20;95.00;;;;;;5029299;28;20119;-67
2021/03/13 02:56:22;;;;;;;11.50;4.38;;;4.20;95.20;;;;;;5029895;28;20052;-67
2021/03/13 02:58:50;;;;;;;9.32;4.65;;;4.20;95.30;;;;;;5030263;28;20112;-67
2021/03/13 03:01:18;;;;;;;9.52;4.47;;;4.20;95.30;;;;;;5027753;28;20107;-67
2021/03/13 03:03:45;;;;;;;14.25;5.25;;;4.20;95.40;;;;;;5028150;28;20025;-67
2021/03/13 03:06:11;;;;;;;10.63;5.13;;;4.20;95.60;;;;;;5027838;28;20126;-67
2021/03/13 03:08:38;;;;;;;10.80;3.72;;;4.30;95.50;;;;;;5028295;28;20100;-67
2021/03/13 03:11:09;;;;;;;10.55;4.80;;;4.20;95.30;;;;;;5027522;28;20037;-67
2021/03/13 03:13:36;;;;;;;10.23;4.93;;;4.30;95.30;;;;;;5028833;28;20152;-67
2021/03/13 03:16:04;;;;;;;12.98;5.35;;;4.30;95.20;;;;;;5027564;28;20093;-67
2021/03/13 03:18:31;;;;;;;11.13;4.93;;;4.30;95.60;;;;;;5023540;28;20040;-67
2021/03/13 03:20:58;;;;;;;13.45;5.80;;;4.30;95.60;;;;;;5025933;28;20108;-67
2021/03/13 03:23:24;;;;;;;12.80;5.95;;;4.30;95.70;;;;;;5027184;28;20029;-67
2021/03/13 03:25:56;;;;;;;13.35;6.00;;;4.20;95.60;;;;;;5025974;28;20037;-67
2021/03/13 03:28:23;;;;;;;13.63;6.00;;;4.30;95.70;;;;;;5027358;28;20110;-66
2021/03/13 03:30:49;;;;;;;15.45;6.13;;;4.30;95.50;;;;;;5029663;28;20036;-66
2021/03/13 03:33:15;;;;;;;11.00;5.30;;;4.30;95.50;;;;;;5025362;28;20033;-66
2021/03/13 03:35:42;;;;;;;14.10;6.45;;;4.40;95.30;;;;;;5028423;28;20025;-67
2021/03/13 03:38:09;;;;;;;17.48;6.78;;;4.40;95.40;;;;;;5027982;28;20021;-67
2021/03/13 03:40:36;;;;;;;14.20;6.50;;;4.40;95.50;;;;;;5027440;28;20116;-67
2021/03/13 03:43:08;;;;;;;16.52;6.90;;;4.40;95.40;;;;;;5029839;28;20610;-67
2021/03/13 03:45:34;;;;;;;14.20;6.88;;;4.40;95.50;;;;;;5027492;28;20025;-67
2021/03/13 03:48:11;;;;;;;13.52;6.22;;;4.40;95.60;;;;;;5027867;28;20029;-67
2021/03/13 03:50:37;;;;;;;16.88;7.05;;;4.40;95.40;;;;;;5028691;28;20491;-67
2021/03/13 03:53:07;;;;;;;15.23;6.85;;;4.40;95.50;;;;;;5028595;28;20069;-67
2021/03/13 03:55:37;;;;;;;15.40;6.70;;;4.40;95.20;;;;;;5027716;28;20033;-67
2021/03/13 03:58:05;;;;;;;20.58;7.18;;;4.50;95.10;;;;;;5027723;28;20022;-67
2021/03/13 04:00:31;;;;;;;20.05;6.90;;;4.50;95.10;;;;;;5028144;28;20025;-67
2021/03/13 04:02:58;;;;;;;13.63;6.93;;;4.60;95.10;;;;;;5027744;28;20025;-67
2021/03/13 04:05:25;;;;;;;16.15;7.30;;;4.50;94.90;;;;;;5026592;28;20475;-67
2021/03/13 04:07:52;;;;;;;19.15;6.60;;;4.60;95.20;;;;;;5028016;28;20052;-67
2021/03/13 04:10:18;;;;;;;17.08;7.22;;;4.60;95.20;;;;;;5029122;28;20030;-67
2021/03/13 04:12:46;;;;;;;16.60;7.50;;;4.60;95.00;;;;;;5027811;28;20513;-67
2021/03/13 04:15:13;;;;;;;17.25;6.75;;;4.70;94.70;;;;;;5027604;28;20544;-67
2021/03/13 04:17:39;;;;;;;15.13;6.53;;;4.60;94.90;;;;;;5027621;28;20037;-67
2021/03/13 04:20:07;;;;;;;18.20;7.35;;;4.70;94.90;;;;;;5026928;28;20061;-67
2021/03/13 04:22:35;;;;;;;13.95;6.72;;;4.70;94.80;;;;;;5024981;28;20110;-67
2021/03/13 04:25:04;;;;;;;15.68;6.97;;;4.70;94.80;;;;;;5026390;28;20522;-67
2021/03/13 04:27:29;;;;;;;17.85;6.93;;;4.60;94.90;;;;;;5027097;28;20041;-67
2021/03/13 04:29:55;;;;;;;17.45;6.90;;;4.70;94.80;;;;;;5027636;28;20037;-67
2021/03/13 04:32:23;;;;;;;20.08;8.20;;;4.80;94.80;;;;;;5027813;28;20399;-67
2021/03/13 04:34:50;;;;;;;21.02;7.82;;;4.70;94.80;;;;;;5025675;28;20267;-67
2021/03/13 04:37:17;;;;;;;16.63;7.70;;;4.80;94.70;;;;;;5026556;28;20079;-67
2021/03/13 04:39:44;;;;;;;22.40;7.65;;;4.70;94.80;;;;;;5026327;28;20535;-67
2021/03/13 04:42:10;;;;;;;19.15;9.07;;;4.80;94.80;;;;;;5028556;28;20051;-67
2021/03/13 04:44:37;;;;;;;19.92;8.73;;;4.80;95.00;;;;;;5028502;28;20475;-67
2021/03/13 04:47:03;;;;;;;21.58;9.27;;;4.70;94.80;;;;;;5025461;28;20033;-67
2021/03/13 04:49:29;;;;;;;24.05;9.13;;;4.70;95.10;;;;;;5026490;28;20384;-67
2021/03/13 04:51:59;;;;;;;17.50;9.52;;;4.70;95.00;;;;;;5027177;28;20036;-67
2021/03/13 04:54:28;;;;;;;21.63;9.00;;;4.70;95.00;;;;;;5026224;28;20021;-66
2021/03/13 04:56:54;;;;;;;20.92;9.77;;;4.80;94.80;;;;;;5027022;28;20502;-67
2021/03/13 04:59:21;;;;;;;19.77;9.43;;;4.80;94.80;;;;;;5025714;28;20409;-67
2021/03/13 05:01:47;;;;;;;21.77;9.82;;;4.80;94.90;;;;;;5025987;28;20030;-67
2021/03/13 05:04:13;;;;;;;16.88;9.85;;;4.80;94.90;;;;;;5028319;28;20033;-67
2021/03/13 05:06:39;;;;;;;17.98;10.13;;;4.80;94.90;;;;;;5026827;28;20033;-67
2021/03/13 05:09:05;;;;;;;16.83;10.05;;;4.80;95.10;;;;;;5027474;28;20057;-67
2021/03/13 05:11:32;;;;;;;22.58;10.05;;;4.80;95.00;;;;;;5031388;28;20687;-67
2021/03/13 05:13:59;;;;;;;17.00;10.40;;;4.80;94.80;;;;;;5031163;28;20601;-67
2021/03/13 05:16:25;;;;;;;22.25;10.18;;;4.80;95.00;;;;;;5029053;28;20025;-67
2021/03/13 05:18:51;;;;;;;18.90;10.27;;;4.80;94.80;;;;;;5029747;28;20537;-67
2021/03/13 05:21:17;;;;;;;18.27;10.52;;;4.90;94.70;;;;;;5030425;28;20030;-67
2021/03/13 05:23:44;;;;;;;20.33;10.95;;;4.90;94.60;;;;;;5030283;28;20056;-67
2021/03/13 05:26:10;;;;;;;25.35;11.15;;;4.90;94.60;;;;;;5031030;28;20438;-67
2021/03/13 05:28:35;;;;;;;20.30;10.73;;;4.90;94.40;;;;;;5030355;28;20037;-67
2021/03/13 05:31:01;;;;;;;24.38;10.80;;;4.90;94.60;;;;;;5030779;28;20037;-67
2021/03/13 05:33:26;;;;;;;19.83;11.73;;;4.90;94.80;;;;;;5031711;28;20026;-67
2021/03/13 05:35:52;;;;;;;23.58;11.60;;;4.90;94.80;;;;;;5031042;28;20037;-67
2021/03/13 05:38:18;;;;;;;22.65;11.38;;;4.90;94.80;;;;;;5030474;28;20033;-66
2021/03/13 05:40:44;;;;;;;24.60;10.73;;;4.90;94.70;;;;;;5031110;28;20108;-67
2021/03/13 05:43:12;;;;;;;22.80;12.55;;;4.90;94.60;;;;;;5029633;28;20557;-67
2021/03/13 05:45:40;;;;;;;21.08;10.95;;;4.90;94.80;;;;;;5030915;28;20045;-67
2021/03/13 05:48:08;;;;;;;28.17;12.25;;;4.90;94.60;;;;;;5031010;28;20483;-67
2021/03/13 05:50:34;;;;;;;25.17;11.63;;;4.90;94.70;;;;;;5031895;28;20033;-67
2021/03/13 05:53:09;;;;;;;24.20;12.63;;;4.90;94.70;;;;;;5029934;28;20037;-69
2021/03/13 05:55:35;;;;;;;20.88;11.45;;;4.90;94.70;;;;;;5030508;28;20037;-68
2021/03/13 05:58:05;;;;;;;27.13;13.23;;;4.90;94.70;;;;;;5029675;28;20048;-68
2021/03/13 06:00:31;;;;;;;21.65;13.15;;;4.90;94.90;;;;;;5028562;28;20033;-68
2021/03/13 06:02:57;;;;;;;22.15;12.90;;;4.90;94.80;;;;;;5029569;28;20032;-67
2021/03/13 06:05:23;;;;;;;24.73;12.57;;;4.90;94.90;;;;;;5030599;28;20394;-68
2021/03/13 06:07:53;;;;;;;24.95;12.35;;;5.00;95.00;;;;;;5030357;28;20037;-67
2021/03/13 06:10:18;;;;;;;21.88;11.15;;;5.00;95.10;;;;;;5031417;28;20061;-68
2021/03/13 06:12:44;;;;;;;22.85;11.45;;;5.00;95.00;;;;;;5031074;28;20134;-67
2021/03/13 06:15:10;;;;;;;23.38;12.18;;;5.10;95.20;;;;;;5027113;28;20613;-67
2021/03/13 06:17:56;;;;;;;24.42;11.63;;;5.10;94.90;;;;;;5028882;28;20372;-67
2021/03/13 06:20:32;;;;;;;28.27;11.88;;;5.10;95.00;;;;;;5027526;28;20038;-67
2021/03/13 06:23:02;;;;;;;20.45;11.63;;;5.20;95.20;;;;;;5030191;28;20442;-68
2021/03/13 06:25:30;;;;;;;22.45;11.60;;;5.20;95.10;;;;;;5030199;28;20476;-67
2021/03/13 06:28:04;;;;;;;22.13;11.05;;;5.20;95.10;;;;;;5030953;28;20037;-68
2021/03/13 06:30:48;;;;;;;22.90;11.63;;;5.30;95.10;;;;;;5029258;28;20029;-67
2021/03/13 06:33:23;;;;;;;21.17;11.45;;;5.20;95.20;;;;;;5028759;28;20117;-67
2021/03/13 06:35:50;;;;;;;19.55;9.95;;;5.30;95.20;;;;;;5029280;28;20079;-67
2021/03/13 06:38:20;;;;;;;19.40;10.65;;;5.40;95.00;;;;;;5030257;28;20438;-68
2021/03/13 06:40:48;;;;;;;20.17;10.13;;;5.30;95.10;;;;;;5028109;28;20026;-67
2021/03/13 06:43:19;;;;;;;24.48;10.70;;;5.30;95.20;;;;;;5029061;28;20037;-66
2021/03/13 06:45:56;;;;;;;22.27;10.57;;;5.30;95.40;;;;;;5029532;28;20109;-68
2021/03/13 06:48:33;;;;;;;19.58;9.98;;;5.30;95.50;;;;;;5026228;28;20475;-66
2021/03/13 06:51:15;;;;;;;18.95;9.35;;;5.40;95.20;;;;;;5030527;28;20096;-67
2021/03/13 06:53:41;;;;;;;22.40;9.40;;;5.40;95.40;;;;;;5029092;28;20131;-67
2021/03/13 06:56:11;;;;;;;19.35;8.52;;;5.40;95.60;;;;;;5029270;28;20025;-66
2021/03/13 06:58:38;;;;;;;16.30;8.10;;;5.30;95.60;;;;;;5028829;28;20427;-68
2021/03/13 07:01:09;;;;;;;20.27;8.73;;;5.30;95.60;;;;;;5027570;28;20035;-67
2021/03/13 07:03:49;;;;;;;18.00;8.75;;;5.30;95.70;;;;;;5029832;28;20025;-66
2021/03/13 07:06:18;;;;;;;18.08;8.05;;;5.30;95.90;;;;;;5028184;28;20037;-67
2021/03/13 07:08:49;;;;;;;19.27;7.50;;;5.30;95.80;;;;;;5028734;28;20025;-68
2021/03/13 07:11:24;;;;;;;18.58;8.63;;;5.30;95.90;;;;;;5024223;28;20088;-68
2021/03/13 07:13:55;;;;;;;15.77;7.80;;;5.30;95.90;;;;;;5027296;28;20529;-68
2021/03/13 07:16:37;;;;;;;12.00;6.78;;;5.30;96.00;;;;;;5028412;28;20483;-66
2021/03/13 07:19:13;;;;;;;15.57;7.53;;;5.30;95.90;;;;;;5027889;28;20280;-67
2021/03/13 07:21:40;;;;;;;12.05;6.28;;;5.40;95.90;;;;;;5028883;28;20119;-67
2021/03/13 07:24:11;;;;;;;13.20;6.10;;;5.40;95.70;;;;;;5027961;28;20033;-71
2021/03/13 07:26:42;;;;;;;13.77;5.93;;;5.40;95.80;;;;;;5026697;28;20423;-68
2021/03/13 07:29:12;;;;;;;12.53;5.70;;;5.30;95.70;;;;;;5027658;28;20034;-67
2021/03/13 07:31:40;;;;;;;14.57;6.65;;;5.30;96.00;;;;;;5026704;28;20041;-68
2021/03/13 07:34:12;;;;;;;9.77;6.10;;;5.30;96.00;;;;;;5025777;28;20400;-68
2021/03/13 07:36:42;;;;;;;14.40;5.55;;;5.30;96.30;;;;;;5027303;28;20029;-68
2021/03/13 07:39:28;;;;;;;14.45;5.95;;;5.30;96.20;;;;;;5023432;28;20022;-68
2021/03/13 07:42:10;;;;;;;8.32;5.68;;;5.30;96.00;;;;;;5026535;28;20037;-67
2021/03/13 07:44:36;;;;;;;9.02;4.93;;;5.30;96.40;;;;;;5027258;28;20462;-68
2021/03/13 07:47:05;;;;;;;6.88;4.80;;;5.30;96.60;;;;;;5030319;28;20082;-67
2021/03/13 07:49:32;;;;;;;8.30;4.53;;;5.30;96.40;;;;;;5025792;28;20043;-68
2021/03/13 07:51:59;;;;;;;7.18;4.53;;;5.30;96.30;;;;;;5025212;28;20403;-68
2021/03/13 07:54:27;;;;;;;8.50;4.22;;;5.30;96.30;;;;;;5025178;28;20033;-68
2021/03/13 07:56:53;;;;;;;9.68;4.30;;;5.30;96.10;;;;;;5024804;28;20466;-68
2021/03/13 07:59:41;;;;;;;10.85;4.95;;;5.30;96.30;;;;;;5025800;28;20092;-68
2021/03/13 08:02:07;;;;;;;7.32;3.38;;;5.20;96.50;;;;;;5025651;28;20048;-68
2021/03/13 08:04:41;;;;;;;7.35;3.55;;;5.20;96.30;;;;;;5024961;28;20449;-68
2021/03/13 08:07:07;;;;;;;6.03;3.30;;;5.20;96.40;;;;;;5027345;28;20029;-68
2021/03/13 08:09:40;;;;;;;5.15;2.88;;;5.20;96.50;;;;;;5023685;28;20093;-67
2021/03/13 08:12:07;;;;;;;6.32;3.22;;;5.20;96.60;;;;;;5027828;28;20044;-68
2021/03/13 08:14:38;;;;;;;3.42;2.50;;;5.20;96.60;;;;;;5027379;28;20032;-67
2021/03/13 08:17:11;;;;;;;4.87;2.87;;;5.20;96.50;;;;;;5021184;28;20021;-76
2021/03/13 08:19:43;;;;;;;6.47;2.72;;;5.30;96.50;;;;;;5027606;28;20122;-68
2021/03/13 08:22:19;;;;;;;5.07;2.63;;;5.20;96.60;;;;;;5028446;28;20026;-68
2021/03/13 08:24:53;;;;;;;4.50;2.55;;;5.20;96.80;;;;;;5026147;28;20041;-67
2021/03/13 08:27:40;;;;;;;4.53;2.55;;;5.20;97.00;;;;;;5024938;28;20037;-68
2021/03/13 08:30:25;;;;;;;4.90;2.63;;;5.20;97.00;;;;;;5027754;28;20526;-67
2021/03/13 08:33:03;;;;;;;3.33;2.22;;;5.20;96.80;;;;;;5027551;28;20046;-67
2021/03/13 08:35:33;;;;;;;3.00;2.10;;;5.20;96.70;;;;;;5027142;28;20026;-68
2021/03/13 08:37:59;;;;;;;3.03;1.90;;;5.20;96.70;;;;;;5026231;28;20037;-69
2021/03/13 08:40:27;;;;;;;2.65;1.98;;;5.10;97.00;;;;;;5027768;28;20028;-68
2021/03/13 08:42:53;;;;;;;5.13;1.98;;;5.10;97.10;;;;;;5026006;28;20168;-69
2021/03/13 08:45:19;;;;;;;2.78;2.10;;;5.20;97.10;;;;;;5025288;28;20541;-67
2021/03/13 08:47:53;;;;;;;2.63;1.58;;;5.20;97.00;;;;;;5024717;28;20026;-67
2021/03/13 08:50:46;;;;;;;2.17;1.63;;;5.20;97.30;;;;;;5026619;28;20419;-67
2021/03/13 08:53:38;;;;;;;3.13;2.00;;;5.20;97.20;;;;;;5025838;28;20423;-68
2021/03/13 08:56:29;;;;;;;3.40;1.92;;;5.10;97.40;;;;;;5020115;28;20038;-68
2021/03/13 08:58:55;;;;;;;2.95;2.08;;;5.20;97.50;;;;;;5022758;28;20041;-68
2021/03/13 09:01:22;;;;;;;2.95;1.90;;;5.20;97.70;;;;;;5022312;28;20033;-71
2021/03/13 09:03:52;;;;;;;5.95;2.15;;;5.20;97.70;;;;;;5025560;28;20140;-67
2021/03/13 09:06:21;;;;;;;4.57;2.08;;;5.20;97.80;;;;;;5025820;28;20029;-69
2021/03/13 09:08:48;;;;;;;4.13;2.40;;;5.30;97.70;;;;;;5027101;28;20522;-69
2021/03/13 09:11:26;;;;;;;5.32;2.20;;;5.30;97.60;;;;;;5023308;28;20527;-69
2021/03/13 09:14:02;;;;;;;2.75;1.95;;;5.30;97.80;;;;;;5032384;28;20034;-70
2021/03/13 09:16:34;;;;;;;3.42;2.10;;;5.30;97.90;;;;;;5026378;28;20021;-68
2021/03/13 09:19:00;;;;;;;3.25;2.33;;;5.40;97.90;;;;;;5023597;28;20090;-69
2021/03/13 09:21:55;;;;;;;3.70;2.30;;;5.40;97.90;;;;;;5025802;28;20527;-69
2021/03/13 09:24:22;;;;;;;3.50;2.17;;;5.50;98.10;;;;;;5026223;28;20030;-69
2021/03/13 09:26:50;;;;;;;3.60;2.10;;;5.50;97.90;;;;;;5027161;28;20108;-69
2021/03/13 09:29:24;;;;;;;4.68;2.67;;;5.50;98.10;;;;;;5020159;28;20747;-68
2021/03/13 09:31:55;;;;;;;6.03;2.45;;;5.60;98.10;;;;;;5024584;28;20083;-67
2021/03/13 09:34:20;;;;;;;4.90;2.38;;;5.60;98.20;;;;;;5025291;28;20034;-68
2021/03/13 09:36:47;;;;;;;4.63;2.00;;;5.70;98.00;;;;;;5024355;28;20077;-68
2021/03/13 09:39:21;;;;;;;6.63;2.00;;;5.70;98.00;;;;;;5027157;28;20025;-69
2021/03/13 09:42:05;;;;;;;2.45;1.60;;;5.80;98.00;;;;;;5026424;28;20037;-69
2021/03/13 09:44:33;;;;;;;4.20;2.30;;;5.80;98.10;;;;;;5024038;28;20565;-68
2021/03/13 09:46:58;;;;;;;4.13;2.50;;;5.70;98.20;;;;;;5023394;28;20029;-69
2021/03/13 09:49:24;;;;;;;3.92;2.00;;;5.70;98.30;;;;;;5019396;28;20037;-69
2021/03/13 09:51:50;;;;;;;3.45;2.05;;;5.70;98.40;;;;;;5021922;28;20033;-69
2021/03/13 09:54:18;;;;;;;3.63;1.40;;;5.70;98.30;;;;;;5027012;28;20032;-68
2021/03/13 09:56:43;;;;;;;1.95;1.20;;;5.70;98.20;;;;;;5027793;28;20033;-70
2021/03/13 09:59:12;;;;;;;4.68;1.40;;;5.70;98.00;;;;;;5027760;28;20030;-69
2021/03/13 10:01:38;;;;;;;4.07;1.25;;;5.70;98.00;;;;;;5028949;28;20061;-69
2021/03/13 10:04:04;;;;;;;3.38;1.02;;;5.70;97.80;;;;;;5029167;28;20447;-67
2021/03/13 10:06:30;;;;;;;2.05;0.80;;;5.70;97.90;;;;;;5028449;28;20136;-67
2021/03/13 10:08:59;;;;;;;6.20;1.00;;;5.70;97.70;;;;;;5029791;28;20033;-67
2021/03/13 10:11:41;;;;;;;2.60;1.17;;;5.70;96.90;;;;;;5027665;28;20038;-68
2021/03/13 10:14:21;;;;;;;4.10;0.82;;;5.60;97.10;;;;;;5028213;28;20048;-71
2021/03/13 10:16:48;;;;;;;7.00;1.00;;;5.50;97.00;;;;;;5027493;28;20036;-70
2021/03/13 10:19:33;;;;;;;4.82;1.10;;;5.50;97.00;;;;;;5028460;28;20033;-72
2021/03/13 10:22:19;;;;;;;2.92;1.10;;;5.50;97.10;;;;;;5023631;28;20607;-72
2021/03/13 10:24:50;;;;;;;6.47;0.90;;;5.50;97.10;;;;;;5028888;28;20060;-67
2021/03/13 10:27:22;;;;;;;6.22;1.27;;;5.60;97.40;;;;;;5031502;28;20038;-73
2021/03/13 10:29:51;;;;;;;5.97;0.90;;;5.70;97.80;;;;;;5028273;28;20033;-72
2021/03/13 10:32:22;;;;;;;5.18;0.95;;;5.80;97.30;;;;;;5027603;28;20160;-69
2021/03/13 10:35:03;;;;;;;3.58;1.08;;;6.00;97.30;;;;;;5026663;28;20515;-69
2021/03/13 10:37:42;;;;;;;7.68;1.42;;;6.10;97.10;;;;;;5027376;28;20071;-70
2021/03/13 10:40:10;;;;;;;5.82;1.20;;;6.20;96.90;;;;;;5027234;28;20109;-69
2021/03/13 10:42:37;;;;;;;7.35;2.08;;;6.10;97.00;;;;;;5028554;28;20033;-69
2021/03/13 10:45:14;;;;;;;8.57;1.55;;;6.20;97.20;;;;;;5026423;28;20026;-68
2021/03/13 10:47:42;;;;;;;6.43;1.65;;;6.30;96.20;;;;;;5026568;28;20353;-70
2021/03/13 10:50:08;;;;;;;7.22;1.63;;;6.40;95.90;;;;;;5023259;28;20030;-69
2021/03/13 10:52:35;;;;;;;6.13;1.60;;;6.40;96.20;;;;;;5027733;28;20055;-68
2021/03/13 10:55:01;;;;;;;8.73;1.58;;;6.40;96.50;;;;;;5026284;28;20045;-69
2021/03/13 10:57:27;;;;;;;5.95;1.55;;;6.40;96.60;;;;;;5023142;28;20458;-70
2021/03/13 10:59:52;;;;;;;5.68;1.30;;;6.60;95.60;;;;;;5023533;28;20041;-71
2021/03/13 11:02:18;;;;;;;3.65;1.17;;;6.70;94.20;;;;;;5025659;28;20071;-70
2021/03/13 11:04:44;;;;;;;7.88;1.75;;;6.90;94.60;;;;;;5022714;28;20103;-69
2021/03/13 11:07:10;;;;;;;5.20;1.30;;;7.10;95.00;;;;;;5020418;28;20037;-69
2021/03/13 11:09:35;;;;;;;8.13;1.63;;;7.40;93.70;;;;;;5020582;28;20042;-70
2021/03/13 11:12:01;;;;;;;6.63;1.50;;;7.50;93.60;;;;;;5024103;28;20044;-67
2021/03/13 11:14:27;;;;;;;7.68;1.85;;;7.80;92.50;;;;;;5026365;28;20341;-67
2021/03/13 11:16:53;;;;;;;7.78;1.38;;;7.90;92.30;;;;;;5026996;28;20030;-67
2021/03/13 11:19:18;;;;;;;7.80;1.80;;;7.80;91.90;;;;;;5023085;28;20472;-68
2021/03/13 11:21:44;;;;;;;7.68;1.70;;;7.70;92.20;;;;;;5025677;28;20061;-68
2021/03/13 11:24:11;;;;;;;7.38;1.90;;;7.70;92.80;;;;;;5027765;28;20095;-68
2021/03/13 11:26:37;;;;;;;9.73;2.08;;;7.60;92.20;;;;;;5029074;28;20041;-68
2021/03/13 11:29:05;;;;;;;7.53;1.90;;;7.60;92.40;;;;;;5029539;28;20033;-68
2021/03/13 11:31:32;;;;;;;9.07;1.63;;;7.60;93.10;;;;;;5027194;28;20026;-68
2021/03/13 11:33:58;;;;;;;8.48;1.80;;;7.50;92.80;;;;;;5029536;28;20114;-68
2021/03/13 11:36:27;;;;;;;9.80;1.80;;;7.40;93.10;;;;;;5027830;28;20076;-68
2021/03/13 11:38:52;;;;;;;4.35;1.70;;;7.40;92.30;;;;;;5036555;28;20080;-68
2021/03/13 11:41:18;;;;;;;7.43;1.58;;;7.40;93.60;;;;;;5026354;28;20132;-68
2021/03/13 11:43:45;;;;;;;7.97;2.08;;;7.40;93.50;;;;;;5027512;28;20033;-68
2021/03/13 11:46:14;;;;;;;8.90;1.85;;;7.30;93.50;;;;;;5022695;28;20513;-69
2021/03/13 11:48:41;;;;;;;6.57;1.85;;;7.20;93.40;;;;;;5028836;28;20025;-68
2021/03/13 11:51:08;;;;;;;4.97;1.33;;;7.20;92.50;;;;;;5028600;28;20107;-68
2021/03/13 11:53:33;;;;;;;8.63;1.55;;;7.20;93.90;;;;;;5031731;28;20030;-68
2021/03/13 11:55:59;;;;;;;4.68;2.17;;;7.30;94.50;;;;;;5031710;28;20032;-68
2021/03/13 11:58:28;;;;;;;5.75;1.40;;;7.40;94.10;;;;;;5030013;28;20108;-68
2021/03/13 12:00:53;;;;;;;6.88;1.70;;;7.50;93.30;;;;;;5028956;28;20038;-68
2021/03/13 12:03:20;;;;;;;7.47;1.65;;;7.60;93.50;;;;;;5030706;28;20060;-68
2021/03/13 12:05:45;;;;;;;7.35;1.65;;;7.60;93.90;;;;;;5031084;28;20041;-68
2021/03/13 12:08:11;;;;;;;4.88;2.08;;;7.50;92.70;;;;;;5029508;28;20095;-68
2021/03/13 12:10:38;;;;;;;6.93;2.17;;;7.50;93.30;;;;;;5029504;28;20492;-69
2021/03/13 12:13:04;;;;;;;8.45;2.30;;;7.50;93.20;;;;;;5029295;28;20115;-69
2021/03/13 12:15:29;;;;;;;11.80;2.08;;;7.40;93.70;;;;;;5029005;28;20021;-68
2021/03/13 12:17:55;;;;;;;6.20;1.30;;;7.40;93.30;;;;;;5026056;28;20487;-68
2021/03/13 12:20:21;;;;;;;4.80;1.70;;;7.30;91.90;;;;;;5027856;28;20047;-68
2021/03/13 12:22:48;;;;;;;9.38;1.35;;;7.20;92.70;;;;;;5028117;28;20116;-68
2021/03/13 12:25:15;;;;;;;3.60;1.17;;;7.10;92.40;;;;;;5028830;28;20174;-68
2021/03/13 12:27:41;;;;;;;6.25;1.60;;;7.10;92.80;;;;;;5029580;28;20033;-68
2021/03/13 12:30:11;;;;;;;7.22;1.50;;;7.10;93.20;;;;;;5029302;28;20163;-69
2021/03/13 12:32:39;;;;;;;7.53;1.30;;;7.20;93.60;;;;;;5027946;28;20029;-68
2021/03/13 12:35:08;;;;;;;4.18;1.40;;;7.30;92.20;;;;;;5028275;28;20410;-68
2021/03/13 12:37:36;;;;;;;4.95;2.40;;;7.40;93.00;;;;;;5028151;28;20022;-68
2021/03/13 12:40:06;;;;;;;4.97;1.50;;;7.40;92.50;;;;;;5026755;28;20475;-68
2021/03/13 12:42:32;;;;;;;6.27;1.40;;;7.60;91.50;;;;;;5024878;28;20034;-68
2021/03/13 12:44:58;;;;;;;6.70;1.80;;;7.50;91.30;;;;;;5027917;28;20437;-68
2021/03/13 12:47:24;;;;;;;7.65;1.40;;;7.60;91.00;;;;;;5024318;28;20102;-68
2021/03/13 12:49:49;;;;;;;5.80;1.48;;;7.60;90.90;;;;;;5029985;28;20167;-68
2021/03/13 12:52:15;;;;;;;10.25;1.30;;;7.80;88.10;;;;;;5024396;28;20037;-68
2021/03/13 12:54:41;;;;;;;7.43;1.50;;;7.70;87.20;;;;;;5027628;28;20033;-68
2021/03/13 12:57:07;;;;;;;6.07;1.33;;;7.80;89.10;;;;;;5029992;28;20255;-68
2021/03/13 12:59:33;;;;;;;12.77;2.38;;;7.70;87.40;;;;;;5020923;28;20030;-68
2021/03/13 13:01:58;;;;;;;7.30;1.73;;;7.70;89.60;;;;;;5024098;28;20026;-69
2021/03/13 13:04:24;;;;;;;6.45;1.65;;;7.70;90.00;;;;;;5027389;28;20037;-73